createdAt,value
2019-03-20T00:00:41.634Z,4.89
2019-03-20T00:01:44.011Z,4.94
2019-03-20T00:03:34.701Z,4.87
2019-03-20T00:04:34.727Z,4.92
2019-03-20T00:06:27.746Z,4.77
2019-03-20T00:07:27.759Z,4.86
2019-03-20T00:09:20.781Z,4.74
2019-03-20T00:10:20.785Z,4.78
2019-03-20T00:12:13.778Z,4.75
2019-03-20T00:13:13.814Z,4.67
2019-03-20T00:15:06.788Z,4.58
2019-03-20T00:16:06.847Z,4.62
2019-03-20T00:17:59.840Z,4.59
2019-03-20T00:18:59.874Z,4.62
2019-03-20T00:20:52.857Z,4.63
2019-03-20T00:21:52.910Z,4.62
2019-03-20T00:23:45.906Z,4.59
2019-03-20T00:24:45.942Z,4.60
2019-03-20T00:26:38.933Z,4.48
2019-03-20T00:27:38.985Z,4.49
2019-03-20T00:29:31.989Z,4.45
2019-03-20T00:30:32.032Z,4.44
2019-03-20T00:32:25.025Z,4.48
2019-03-20T00:33:25.063Z,4.44
2019-03-20T00:35:18.048Z,4.40
2019-03-20T00:36:18.093Z,4.40
2019-03-20T00:38:11.111Z,4.41
2019-03-20T00:39:11.123Z,4.31
2019-03-20T00:41:04.099Z,4.37
2019-03-20T00:42:04.152Z,4.41
2019-03-20T00:43:57.143Z,4.48
2019-03-20T00:44:57.181Z,4.53
2019-03-20T00:46:50.158Z,4.53
2019-03-20T00:47:50.215Z,4.53
2019-03-20T00:49:43.218Z,4.45
2019-03-20T00:50:43.256Z,4.30
2019-03-20T00:52:36.258Z,4.35
2019-03-20T00:53:36.283Z,4.34
2019-03-20T00:55:29.270Z,4.32
2019-03-20T00:56:29.319Z,4.26
2019-03-20T00:58:22.313Z,4.24
2019-03-20T00:59:22.361Z,4.20
2019-03-20T01:01:15.324Z,4.12
2019-03-20T01:02:15.377Z,4.17
2019-03-20T01:04:08.366Z,4.08
2019-03-20T01:05:12.514Z,4.10
2019-03-20T01:07:01.407Z,4.19
2019-03-20T01:08:01.438Z,4.10
2019-03-20T01:09:54.430Z,4.16
2019-03-20T01:10:54.473Z,4.13
2019-03-20T01:12:47.458Z,4.26
2019-03-20T01:13:47.501Z,4.26
2019-03-20T01:15:40.496Z,4.32
2019-03-20T01:16:40.531Z,4.23
2019-03-20T01:18:33.537Z,4.16
2019-03-20T01:19:33.574Z,4.19
2019-03-20T01:21:26.569Z,4.19
2019-03-20T01:22:26.608Z,4.06
2019-03-20T01:24:19.594Z,4.10
2019-03-20T01:25:19.631Z,4.17
2019-03-20T01:27:12.597Z,4.16
2019-03-20T01:28:12.657Z,4.24
2019-03-20T01:30:05.654Z,4.06
2019-03-20T01:31:05.699Z,4.02
2019-03-20T01:32:58.702Z,4.04
2019-03-20T01:33:58.713Z,3.99
2019-03-20T01:35:51.690Z,4.02
2019-03-20T01:36:51.745Z,4.06
2019-03-20T01:38:44.760Z,4.10
2019-03-20T01:39:44.789Z,3.91
2019-03-20T01:41:38.464Z,3.98
2019-03-20T01:42:37.820Z,3.95
2019-03-20T01:44:30.826Z,4.02
2019-03-20T01:45:30.860Z,4.01
2019-03-20T01:47:23.834Z,3.98
2019-03-20T01:48:23.892Z,3.98
2019-03-20T01:50:16.891Z,3.86
2019-03-20T01:51:16.941Z,3.77
2019-03-20T01:53:09.922Z,3.77
2019-03-20T01:54:09.977Z,3.74
2019-03-20T01:56:02.954Z,3.68
2019-03-20T01:57:02.992Z,3.70
2019-03-20T01:58:55.969Z,3.65
2019-03-20T01:59:56.023Z,3.70
2019-03-20T02:01:49.018Z,3.66
2019-03-20T02:02:49.132Z,3.60
2019-03-20T02:04:42.031Z,3.63
2019-03-20T02:05:42.087Z,3.63
2019-03-20T02:07:35.082Z,3.66
2019-03-20T02:08:35.117Z,3.63
2019-03-20T02:10:28.624Z,3.48
2019-03-20T02:11:28.677Z,3.50
2019-03-20T02:13:21.672Z,3.59
2019-03-20T02:14:21.706Z,3.51
2019-03-20T02:16:14.695Z,3.51
2019-03-20T02:17:14.735Z,3.55
2019-03-20T02:19:07.737Z,3.53
2019-03-20T02:20:07.768Z,3.45
2019-03-20T02:22:00.762Z,3.53
2019-03-20T02:23:00.795Z,3.47
2019-03-20T02:24:53.797Z,3.53
2019-03-20T02:25:53.831Z,3.59
2019-03-20T02:27:46.824Z,3.50
2019-03-20T02:28:46.862Z,3.47
2019-03-20T02:30:39.855Z,3.45
2019-03-20T02:31:39.888Z,3.45
2019-03-20T02:33:32.883Z,3.40
2019-03-20T02:34:32.919Z,3.31
2019-03-20T02:36:25.914Z,3.32
2019-03-20T02:37:25.950Z,3.37
2019-03-20T02:39:18.952Z,3.40
2019-03-20T02:40:18.998Z,3.19
2019-03-20T02:42:11.996Z,3.16
2019-03-20T02:43:12.030Z,3.08
2019-03-20T02:45:05.027Z,3.08
2019-03-20T02:46:05.065Z,3.07
2019-03-20T02:47:58.052Z,3.08
2019-03-20T02:48:58.089Z,3.04
2019-03-20T02:50:51.084Z,3.13
2019-03-20T02:51:51.124Z,3.07
2019-03-20T02:53:44.095Z,3.21
2019-03-20T02:54:44.152Z,3.16
2019-03-20T02:56:37.153Z,3.31
2019-03-20T02:57:37.185Z,3.34
2019-03-20T02:59:30.169Z,3.14
2019-03-20T03:00:30.267Z,3.21
2019-03-20T03:02:23.221Z,3.16
2019-03-20T03:03:23.257Z,3.10
2019-03-20T03:05:16.264Z,3.14
2019-03-20T03:06:16.288Z,3.13
2019-03-20T03:08:09.281Z,3.08
2019-03-20T03:09:09.334Z,3.05
2019-03-20T03:11:02.839Z,3.13
2019-03-20T03:12:02.879Z,3.19
2019-03-20T03:13:55.843Z,3.26
2019-03-20T03:14:55.898Z,3.21
2019-03-20T03:16:48.934Z,3.22
2019-03-20T03:17:48.929Z,3.18
2019-03-20T03:19:41.927Z,3.21
2019-03-20T03:20:41.983Z,3.05
2019-03-20T03:22:34.967Z,3.13
2019-03-20T03:23:35.018Z,3.10
2019-03-20T03:25:27.998Z,3.01
2019-03-20T03:26:28.049Z,3.04
2019-03-20T03:28:21.032Z,2.89
2019-03-20T03:29:21.075Z,3.04
2019-03-20T03:31:14.049Z,3.01
2019-03-20T03:32:14.129Z,3.07
2019-03-20T03:34:07.105Z,3.05
2019-03-20T03:35:07.141Z,2.95
2019-03-20T03:37:00.138Z,3.13
2019-03-20T03:38:00.203Z,3.10
2019-03-20T03:39:53.188Z,3.10
2019-03-20T03:40:53.294Z,3.14
2019-03-20T03:42:46.245Z,3.11
2019-03-20T03:43:46.286Z,2.95
2019-03-20T03:45:39.277Z,2.95
2019-03-20T03:46:39.311Z,2.97
2019-03-20T03:48:32.293Z,2.93
2019-03-20T03:49:32.344Z,2.92
2019-03-20T03:51:25.338Z,2.89
2019-03-20T03:52:25.392Z,2.85
2019-03-20T03:54:18.359Z,2.72
2019-03-20T03:55:18.413Z,2.77
2019-03-20T03:57:11.396Z,2.77
2019-03-20T03:58:11.446Z,2.69
2019-03-20T04:00:04.441Z,2.80
2019-03-20T04:01:04.482Z,2.74
2019-03-20T04:02:57.472Z,2.77
2019-03-20T04:03:57.500Z,2.72
2019-03-20T04:05:50.476Z,2.68
2019-03-20T04:06:50.535Z,2.57
2019-03-20T04:08:43.516Z,2.54
2019-03-20T04:09:43.566Z,2.57
2019-03-20T04:11:36.569Z,2.68
2019-03-20T04:12:36.605Z,2.74
2019-03-20T04:14:29.602Z,2.54
2019-03-20T04:15:29.651Z,2.51
2019-03-20T04:17:22.635Z,2.54
2019-03-20T04:18:22.684Z,2.53
2019-03-20T04:20:15.649Z,2.62
2019-03-20T04:21:15.700Z,2.53
2019-03-20T04:23:08.698Z,2.56
2019-03-20T04:24:08.742Z,2.50
2019-03-20T04:26:01.712Z,2.47
2019-03-20T04:27:01.796Z,2.60
2019-03-20T04:28:54.767Z,2.64
2019-03-20T04:29:54.800Z,2.67
2019-03-20T04:31:47.814Z,2.62
2019-03-20T04:32:47.845Z,2.65
2019-03-20T04:34:40.797Z,2.71
2019-03-20T04:35:40.851Z,2.71
2019-03-20T04:37:33.850Z,2.62
2019-03-20T04:38:33.898Z,2.69
2019-03-20T04:40:26.877Z,2.71
2019-03-20T04:41:26.917Z,2.56
2019-03-20T04:43:19.912Z,2.53
2019-03-20T04:44:19.945Z,2.56
2019-03-20T04:46:12.942Z,2.53
2019-03-20T04:47:12.998Z,2.56
2019-03-20T04:49:05.993Z,2.60
2019-03-20T04:50:06.063Z,2.53
2019-03-20T04:51:59.005Z,2.53
2019-03-20T04:52:59.068Z,2.56
2019-03-20T04:54:52.070Z,2.51
2019-03-20T04:55:52.096Z,2.36
2019-03-20T04:57:46.005Z,2.36
2019-03-20T04:58:45.123Z,2.43
2019-03-20T05:00:38.118Z,2.39
2019-03-20T05:01:38.149Z,2.47
2019-03-20T05:03:31.128Z,2.51
2019-03-20T05:04:31.183Z,2.53
2019-03-20T05:06:24.197Z,2.53
2019-03-20T05:07:24.228Z,2.38
2019-03-20T05:09:17.200Z,2.53
2019-03-20T05:10:17.253Z,2.50
2019-03-20T05:12:10.258Z,2.49
2019-03-20T05:13:10.285Z,2.44
2019-03-20T05:15:03.257Z,2.38
2019-03-20T05:16:03.311Z,2.38
2019-03-20T05:17:56.304Z,2.50
2019-03-20T05:18:56.339Z,2.54
2019-03-20T05:20:49.338Z,2.51
2019-03-20T05:21:49.376Z,2.54
2019-03-20T05:23:42.379Z,2.56
2019-03-20T05:24:42.414Z,2.57
2019-03-20T05:26:35.411Z,2.43
2019-03-20T05:27:35.452Z,2.53
2019-03-20T05:29:28.430Z,2.39
2019-03-20T05:30:28.473Z,2.38
2019-03-20T05:32:21.472Z,2.47
2019-03-20T05:33:21.507Z,2.46
2019-03-20T05:35:14.510Z,2.46
2019-03-20T05:36:14.545Z,2.51
2019-03-20T05:38:07.524Z,2.47
2019-03-20T05:39:07.578Z,2.46
2019-03-20T05:41:00.590Z,2.50
2019-03-20T05:42:00.602Z,2.57
2019-03-20T05:43:53.601Z,2.53
2019-03-20T05:44:53.659Z,2.51
2019-03-20T05:46:46.656Z,2.65
2019-03-20T05:47:46.692Z,2.61
2019-03-20T05:49:39.675Z,2.64
2019-03-20T05:50:39.751Z,2.60
2019-03-20T05:52:32.694Z,2.69
2019-03-20T05:53:32.748Z,2.68
2019-03-20T05:55:25.743Z,2.74
2019-03-20T05:56:25.775Z,2.75
2019-03-20T05:58:18.791Z,2.85
2019-03-20T05:59:18.814Z,2.90
2019-03-20T06:01:11.788Z,3.07
2019-03-20T06:02:11.842Z,3.16
2019-03-20T06:04:04.840Z,3.18
2019-03-20T06:05:04.881Z,3.28
2019-03-20T06:06:57.906Z,3.42
2019-03-20T06:07:57.918Z,3.50
2019-03-20T06:09:50.893Z,3.59
2019-03-20T06:10:50.951Z,3.63
2019-03-20T06:12:43.949Z,3.76
2019-03-20T06:13:43.983Z,3.73
2019-03-20T06:15:36.958Z,3.83
2019-03-20T06:16:37.015Z,3.98
2019-03-20T06:18:30.007Z,4.01
2019-03-20T06:19:30.046Z,4.10
2019-03-20T06:21:23.025Z,4.10
2019-03-20T06:22:23.081Z,4.12
2019-03-20T06:24:16.055Z,4.30
2019-03-20T06:25:16.176Z,4.24
2019-03-20T06:27:09.113Z,4.41
2019-03-20T06:28:09.146Z,4.45
2019-03-20T06:30:02.122Z,4.50
2019-03-20T06:31:02.176Z,4.53
2019-03-20T06:32:55.180Z,4.78
2019-03-20T06:33:55.273Z,4.63
2019-03-20T06:35:48.213Z,4.74
2019-03-20T06:36:48.247Z,4.75
2019-03-20T06:38:41.317Z,4.80
2019-03-20T06:39:41.354Z,4.86
2019-03-20T06:41:34.353Z,4.96
2019-03-20T06:42:34.385Z,4.90
2019-03-20T06:44:27.368Z,4.99
2019-03-20T06:45:27.422Z,5.02
2019-03-20T06:47:20.436Z,5.12
2019-03-20T06:48:20.459Z,5.25
2019-03-20T06:50:13.444Z,5.28
2019-03-20T06:51:13.495Z,5.35
2019-03-20T06:53:06.490Z,5.46
2019-03-20T06:54:06.522Z,5.50
2019-03-20T06:55:59.511Z,5.72
2019-03-20T06:56:59.562Z,5.91
2019-03-20T06:58:52.563Z,6.09
2019-03-20T06:59:52.600Z,6.22
2019-03-20T07:01:45.580Z,6.82
2019-03-20T07:02:45.629Z,6.81
2019-03-20T07:04:38.618Z,6.74
2019-03-20T07:05:38.668Z,6.60
2019-03-20T07:07:31.660Z,6.44
2019-03-20T07:08:31.698Z,6.33
2019-03-20T07:10:26.213Z,6.26
2019-03-20T07:11:26.238Z,6.22
2019-03-20T07:13:19.238Z,6.24
2019-03-20T07:14:19.274Z,6.33
2019-03-20T07:16:12.275Z,6.57
2019-03-20T07:17:12.308Z,8.01
2019-03-20T07:19:05.288Z,10.89
2019-03-20T07:20:05.342Z,12.22
2019-03-20T07:21:58.332Z,11.78
2019-03-20T07:22:58.373Z,11.37
2019-03-20T07:24:51.388Z,10.67
2019-03-20T07:25:51.410Z,10.54
2019-03-20T07:27:44.408Z,10.53
2019-03-20T07:28:44.481Z,10.33
2019-03-20T07:30:37.462Z,10.04
2019-03-20T07:31:37.501Z,9.98
2019-03-20T07:33:30.479Z,9.65
2019-03-20T07:34:30.588Z,9.54
2019-03-20T07:36:23.547Z,9.37
2019-03-20T07:37:23.579Z,9.37
2019-03-20T07:39:16.563Z,9.31
2019-03-20T07:40:16.624Z,9.26
2019-03-20T07:42:09.629Z,9.22
2019-03-20T07:43:09.681Z,9.25
2019-03-20T07:45:02.643Z,8.85
2019-03-20T07:46:02.704Z,8.64
2019-03-20T07:47:55.699Z,8.36
2019-03-20T07:48:55.743Z,8.37
2019-03-20T07:50:48.749Z,8.53
2019-03-20T07:51:48.787Z,8.82
2019-03-20T07:53:41.782Z,11.25
2019-03-20T07:54:41.821Z,12.73
2019-03-20T07:56:34.816Z,15.11
2019-03-20T07:57:34.863Z,15.68
2019-03-20T07:59:27.866Z,15.43
2019-03-20T08:00:27.902Z,14.37
2019-03-20T08:02:20.906Z,13.42
2019-03-20T08:03:20.961Z,12.90
2019-03-20T08:05:13.937Z,12.53
2019-03-20T08:06:13.994Z,12.18
2019-03-20T08:08:07.894Z,11.73
2019-03-20T08:09:07.087Z,11.51
2019-03-20T08:11:00.555Z,11.27
2019-03-20T08:12:00.582Z,11.19
2019-03-20T08:13:53.593Z,11.04
2019-03-20T08:14:53.626Z,10.99
2019-03-20T08:16:46.617Z,10.72
2019-03-20T08:17:46.701Z,10.79
2019-03-20T08:19:39.676Z,10.79
2019-03-20T08:20:39.718Z,10.69
2019-03-20T08:22:32.692Z,10.67
2019-03-20T08:23:32.754Z,10.69
2019-03-20T08:25:25.754Z,10.76
2019-03-20T08:26:25.799Z,10.72
2019-03-20T08:28:18.783Z,10.78
2019-03-20T08:29:18.836Z,10.82
2019-03-20T08:31:11.872Z,10.84
2019-03-20T08:32:11.892Z,10.78
2019-03-20T08:34:04.899Z,10.89
2019-03-20T08:35:04.942Z,10.72
2019-03-20T08:36:57.939Z,10.68
2019-03-20T08:37:57.977Z,10.61
2019-03-20T08:39:50.976Z,10.53
2019-03-20T08:40:51.017Z,10.56
2019-03-20T08:42:44.008Z,10.75
2019-03-20T08:43:45.706Z,10.74
2019-03-20T08:45:37.068Z,10.81
2019-03-20T08:46:37.131Z,10.72
2019-03-20T08:48:30.088Z,10.67
2019-03-20T08:49:30.146Z,10.63
2019-03-20T08:51:23.151Z,10.89
2019-03-20T08:52:23.188Z,10.81
2019-03-20T08:54:16.194Z,10.99
2019-03-20T08:55:16.236Z,11.05
2019-03-20T08:57:09.223Z,11.19
2019-03-20T08:58:09.280Z,11.08
2019-03-20T09:00:02.286Z,11.19
2019-03-20T09:01:02.326Z,11.10
2019-03-20T09:02:55.316Z,11.12
2019-03-20T09:03:55.370Z,11.14
2019-03-20T09:05:48.375Z,11.23
2019-03-20T09:06:48.407Z,11.18
2019-03-20T09:08:41.390Z,11.30
2019-03-20T09:09:41.446Z,11.26
2019-03-20T09:11:34.441Z,11.41
2019-03-20T09:12:34.480Z,11.45
2019-03-20T09:14:27.485Z,11.43
2019-03-20T09:15:27.529Z,11.26
2019-03-20T09:17:20.530Z,11.29
2019-03-20T09:18:20.576Z,11.17
2019-03-20T09:20:13.619Z,11.19
2019-03-20T09:21:13.658Z,11.27
2019-03-20T09:23:06.653Z,11.36
2019-03-20T09:24:06.705Z,11.50
2019-03-20T09:25:59.712Z,11.77
2019-03-20T09:26:59.752Z,11.72
2019-03-20T09:28:52.732Z,11.97
2019-03-20T09:29:52.792Z,12.04
2019-03-20T09:31:45.797Z,11.77
2019-03-20T09:32:45.836Z,11.73
2019-03-20T09:34:38.840Z,11.70
2019-03-20T09:35:38.906Z,11.78
2019-03-20T09:37:31.910Z,11.86
2019-03-20T09:38:42.729Z,11.91
2019-03-20T09:40:24.949Z,12.03
2019-03-20T09:41:24.987Z,12.15
2019-03-20T09:43:17.998Z,12.36
2019-03-20T09:44:18.036Z,12.21
2019-03-20T09:46:11.016Z,12.24
2019-03-20T09:47:11.075Z,12.45
2019-03-20T09:49:04.079Z,12.61
2019-03-20T09:50:04.116Z,12.67
2019-03-20T09:51:57.115Z,12.62
2019-03-20T09:52:57.155Z,12.45
2019-03-20T09:54:50.167Z,12.61
2019-03-20T09:55:50.200Z,12.67
2019-03-20T09:57:43.208Z,12.95
2019-03-20T09:58:43.272Z,12.85
2019-03-20T10:00:36.279Z,12.97
2019-03-20T10:01:36.321Z,12.97
2019-03-20T10:03:29.352Z,13.23
2019-03-20T10:04:29.393Z,13.30
2019-03-20T10:06:22.373Z,13.47
2019-03-20T10:07:22.449Z,13.49
2019-03-20T10:09:15.433Z,13.47
2019-03-20T10:10:15.482Z,13.22
2019-03-20T10:12:08.482Z,13.18
2019-03-20T10:13:08.602Z,13.31
2019-03-20T10:15:01.528Z,13.28
2019-03-20T10:16:01.581Z,13.33
2019-03-20T10:17:54.587Z,13.62
2019-03-20T10:18:54.625Z,13.68
2019-03-20T10:20:47.626Z,13.38
2019-03-20T10:21:47.667Z,13.49
2019-03-20T10:23:40.653Z,13.19
2019-03-20T10:24:40.722Z,13.23
2019-03-20T10:26:33.718Z,13.20
2019-03-20T10:27:33.760Z,13.09
2019-03-20T10:29:26.743Z,13.00
2019-03-20T10:30:26.800Z,13.04
2019-03-20T10:32:19.805Z,13.18
2019-03-20T10:33:19.841Z,13.09
2019-03-20T10:35:12.844Z,13.11
2019-03-20T10:36:12.899Z,13.09
2019-03-20T10:38:05.892Z,13.09
2019-03-20T10:39:06.879Z,13.20
2019-03-20T10:40:58.952Z,13.53
2019-03-20T10:41:58.991Z,13.41
2019-03-20T10:43:52.443Z,13.46
2019-03-20T10:44:52.040Z,13.53
2019-03-20T10:46:45.023Z,13.53
2019-03-20T10:47:45.080Z,13.53
2019-03-20T10:49:38.083Z,13.62
2019-03-20T10:50:38.123Z,13.85
2019-03-20T10:52:31.123Z,13.78
2019-03-20T10:53:31.172Z,13.78
2019-03-20T10:55:24.203Z,13.85
2019-03-20T10:56:24.240Z,13.81
2019-03-20T10:58:17.249Z,13.72
2019-03-20T10:59:17.279Z,13.71
2019-03-20T11:01:10.269Z,13.74
2019-03-20T11:02:10.329Z,13.50
2019-03-20T11:04:03.336Z,13.56
2019-03-20T11:05:03.374Z,13.50
2019-03-20T11:06:56.357Z,13.41
2019-03-20T11:07:56.431Z,13.49
2019-03-20T11:09:49.423Z,13.62
2019-03-20T11:10:49.472Z,13.72
2019-03-20T11:12:42.452Z,13.95
2019-03-20T11:13:42.508Z,13.95
2019-03-20T11:15:35.515Z,14.08
2019-03-20T11:16:35.553Z,14.12
2019-03-20T11:18:28.581Z,14.43
2019-03-20T11:19:28.598Z,14.55
2019-03-20T11:21:21.594Z,14.89
2019-03-20T11:22:21.658Z,15.07
2019-03-20T11:24:15.366Z,15.11
2019-03-20T11:25:14.696Z,14.97
2019-03-20T11:27:07.687Z,15.04
2019-03-20T11:28:07.747Z,15.17
2019-03-20T11:30:00.752Z,15.03
2019-03-20T11:31:00.790Z,14.94
2019-03-20T11:32:53.784Z,14.96
2019-03-20T11:33:53.844Z,14.81
2019-03-20T11:35:46.860Z,15.10
2019-03-20T11:36:46.894Z,15.18
2019-03-20T11:38:39.876Z,14.99
2019-03-20T11:39:39.938Z,15.03
2019-03-20T11:41:32.944Z,15.02
2019-03-20T11:42:32.997Z,14.68
2019-03-20T11:44:25.969Z,14.72
2019-03-20T11:45:26.083Z,14.63
2019-03-20T11:47:19.045Z,14.66
2019-03-20T11:48:19.077Z,14.79
2019-03-20T11:50:12.062Z,14.68
2019-03-20T11:51:12.120Z,14.68
2019-03-20T11:53:05.140Z,14.66
2019-03-20T11:54:05.166Z,14.62
2019-03-20T11:55:58.163Z,14.35
2019-03-20T11:56:58.220Z,14.33
2019-03-20T11:58:51.236Z,14.10
2019-03-20T11:59:51.269Z,14.07
2019-03-20T12:01:44.258Z,13.96
2019-03-20T12:02:44.317Z,13.86
2019-03-20T12:04:37.383Z,13.78
2019-03-20T12:05:37.399Z,13.78
2019-03-20T12:07:30.403Z,13.71
2019-03-20T12:08:30.433Z,13.72
2019-03-20T12:10:24.014Z,13.79
2019-03-20T12:11:23.991Z,13.68
2019-03-20T12:13:16.972Z,13.78
2019-03-20T12:14:17.031Z,13.89
2019-03-20T12:16:10.045Z,14.04
2019-03-20T12:17:10.076Z,13.93
2019-03-20T12:19:03.068Z,14.14
2019-03-20T12:20:03.125Z,14.11
2019-03-20T12:21:56.127Z,14.07
2019-03-20T12:22:56.170Z,14.05
2019-03-20T12:24:49.188Z,13.96
2019-03-20T12:25:49.238Z,14.03
2019-03-20T12:27:42.217Z,14.08
2019-03-20T12:28:42.279Z,14.15
2019-03-20T12:30:35.281Z,14.12
2019-03-20T12:31:35.332Z,14.29
2019-03-20T12:33:28.339Z,14.33
2019-03-20T12:34:28.383Z,14.40
2019-03-20T12:36:21.376Z,14.40
2019-03-20T12:37:21.424Z,14.33
2019-03-20T12:39:14.428Z,14.29
2019-03-20T12:40:14.471Z,14.08
2019-03-20T12:42:07.475Z,13.96
2019-03-20T12:43:07.516Z,14.07
2019-03-20T12:45:00.501Z,14.08
2019-03-20T12:46:00.643Z,14.12
2019-03-20T12:47:53.572Z,14.07
2019-03-20T12:48:53.603Z,13.96
2019-03-20T12:50:46.609Z,14.03
2019-03-20T12:51:46.667Z,13.89
2019-03-20T12:53:39.668Z,14.03
2019-03-20T12:54:39.742Z,13.97
2019-03-20T12:56:32.685Z,14.00
2019-03-20T12:57:32.746Z,14.04
2019-03-20T12:59:25.779Z,14.05
2019-03-20T13:00:27.463Z,14.04
2019-03-20T13:02:18.779Z,14.12
2019-03-20T13:03:18.848Z,14.17
2019-03-20T13:05:11.871Z,14.18
2019-03-20T13:06:11.884Z,14.17
2019-03-20T13:08:06.098Z,14.10
2019-03-20T13:09:04.939Z,14.07
2019-03-20T13:10:58.434Z,13.95
2019-03-20T13:11:58.489Z,14.05
2019-03-20T13:13:51.485Z,13.95
2019-03-20T13:14:51.532Z,13.99
2019-03-20T13:16:44.518Z,14.07
2019-03-20T13:17:44.578Z,13.97
2019-03-20T13:19:37.596Z,14.04
2019-03-20T13:20:37.626Z,14.05
2019-03-20T13:22:30.617Z,14.12
2019-03-20T13:23:30.673Z,14.12
2019-03-20T13:25:23.706Z,14.00
2019-03-20T13:26:23.715Z,14.08
2019-03-20T13:28:16.761Z,14.05
2019-03-20T13:29:16.750Z,14.14
2019-03-20T13:31:09.814Z,14.15
2019-03-20T13:32:09.793Z,14.17
2019-03-20T13:35:30.533Z,14.20
2019-03-20T13:36:30.658Z,14.28
2019-03-20T13:39:14.906Z,14.22
2019-03-20T13:40:15.069Z,14.25
2019-03-20T13:42:07.976Z,14.17
2019-03-20T13:43:09.039Z,14.11
2019-03-20T13:45:01.424Z,14.05
2019-03-20T13:46:01.063Z,14.11
2019-03-20T13:47:54.078Z,14.04
2019-03-20T13:48:54.118Z,13.90
2019-03-20T13:50:47.109Z,13.85
2019-03-20T13:51:47.164Z,13.86
2019-03-20T13:53:40.168Z,13.89
2019-03-20T13:54:40.206Z,13.90
2019-03-20T13:56:33.198Z,13.83
2019-03-20T13:57:33.248Z,13.89
2019-03-20T13:59:26.250Z,13.83
2019-03-20T14:00:26.300Z,13.83
2019-03-20T14:02:19.336Z,13.71
2019-03-20T14:03:19.350Z,13.79
2019-03-20T14:05:12.358Z,13.68
2019-03-20T14:06:12.388Z,13.77
2019-03-20T14:08:05.389Z,13.79
2019-03-20T14:09:05.442Z,13.78
2019-03-20T14:10:58.457Z,13.77
2019-03-20T14:11:58.484Z,13.87
2019-03-20T14:13:51.495Z,13.86
2019-03-20T14:14:51.546Z,13.83
2019-03-20T14:16:44.520Z,13.85
2019-03-20T14:17:44.575Z,13.72
2019-03-20T14:19:37.594Z,13.90
2019-03-20T14:20:37.620Z,13.79
2019-03-20T14:22:30.608Z,13.83
2019-03-20T14:23:30.665Z,13.67
2019-03-20T14:25:23.686Z,13.63
2019-03-20T14:26:23.721Z,13.68
2019-03-20T14:28:16.699Z,13.54
2019-03-20T14:29:16.751Z,13.54
2019-03-20T14:31:09.762Z,13.62
2019-03-20T14:32:09.794Z,13.63
2019-03-20T14:34:02.785Z,13.63
2019-03-20T14:35:02.845Z,13.53
2019-03-20T14:36:55.864Z,13.42
2019-03-20T14:37:55.890Z,13.28
2019-03-20T14:39:48.875Z,13.20
2019-03-20T14:40:48.929Z,13.19
2019-03-20T14:42:41.937Z,13.12
2019-03-20T14:43:41.978Z,13.09
2019-03-20T14:45:35.008Z,13.19
2019-03-20T14:46:35.041Z,13.11
2019-03-20T14:48:28.048Z,13.27
2019-03-20T14:49:28.092Z,13.30
2019-03-20T14:51:21.106Z,13.38
2019-03-20T14:52:21.220Z,13.38
2019-03-20T14:54:14.142Z,13.46
2019-03-20T14:55:14.195Z,13.52
2019-03-20T14:57:07.221Z,13.41
2019-03-20T14:58:07.251Z,13.41
2019-03-20T15:00:00.400Z,13.46
2019-03-20T15:01:00.305Z,13.52
2019-03-20T15:02:53.322Z,13.38
2019-03-20T15:03:53.352Z,13.38
2019-03-20T15:05:46.346Z,13.41
2019-03-20T15:06:46.406Z,13.46
2019-03-20T15:08:39.416Z,13.44
2019-03-20T15:09:39.445Z,13.42
2019-03-20T15:11:32.441Z,13.33
2019-03-20T15:12:32.509Z,13.41
2019-03-20T15:14:25.540Z,13.42
2019-03-20T15:15:25.563Z,13.37
2019-03-20T15:17:18.638Z,13.37
2019-03-20T15:18:18.678Z,13.39
2019-03-20T15:20:11.652Z,13.31
2019-03-20T15:21:11.712Z,13.31
2019-03-20T15:23:04.719Z,13.41
2019-03-20T15:24:04.753Z,13.37
2019-03-20T15:25:57.769Z,13.46
2019-03-20T15:26:57.796Z,13.41
2019-03-20T15:28:50.779Z,13.50
2019-03-20T15:29:50.843Z,13.54
2019-03-20T15:31:43.846Z,13.70
2019-03-20T15:32:43.917Z,13.60
2019-03-20T15:34:36.996Z,13.60
2019-03-20T15:35:36.949Z,13.62
2019-03-20T15:37:29.946Z,13.60
2019-03-20T15:38:29.978Z,13.67
2019-03-20T15:40:22.986Z,13.53
2019-03-20T15:41:23.015Z,13.49
2019-03-20T15:43:16.029Z,13.47
2019-03-20T15:44:16.063Z,13.49
2019-03-20T15:46:09.076Z,13.47
2019-03-20T15:47:09.120Z,13.42
2019-03-20T15:49:02.173Z,13.47
2019-03-20T15:50:02.160Z,13.44
2019-03-20T15:51:55.129Z,13.41
2019-03-20T15:52:55.195Z,13.54
2019-03-20T15:54:48.204Z,13.52
2019-03-20T15:55:48.235Z,13.53
2019-03-20T15:57:41.216Z,13.42
2019-03-20T15:58:41.276Z,13.44
2019-03-20T16:00:34.292Z,13.49
2019-03-20T16:01:34.323Z,13.47
2019-03-20T16:03:27.301Z,13.37
2019-03-20T16:04:27.361Z,13.56
2019-03-20T16:06:20.453Z,13.42
2019-03-20T16:07:20.417Z,13.39
2019-03-20T16:09:13.543Z,13.27
2019-03-20T16:10:13.444Z,13.31
2019-03-20T16:12:06.477Z,13.28
2019-03-20T16:13:06.516Z,13.19
2019-03-20T16:14:59.499Z,13.22
2019-03-20T16:15:59.554Z,13.19
2019-03-20T16:17:52.571Z,13.18
2019-03-20T16:18:52.599Z,13.23
2019-03-20T16:20:45.592Z,13.19
2019-03-20T16:21:45.640Z,13.19
2019-03-20T16:23:38.776Z,13.25
2019-03-20T16:24:38.717Z,13.28
2019-03-20T16:26:31.831Z,13.15
2019-03-20T16:27:31.752Z,13.30
2019-03-20T16:29:24.756Z,13.23
2019-03-20T16:30:24.785Z,13.16
2019-03-20T16:32:17.806Z,13.13
2019-03-20T16:33:17.847Z,13.18
2019-03-20T16:35:10.860Z,13.22
2019-03-20T16:36:10.889Z,13.18
2019-03-20T16:38:03.872Z,13.25
2019-03-20T16:39:03.932Z,13.19
2019-03-20T16:40:56.933Z,13.19
2019-03-20T16:41:56.976Z,13.20
2019-03-20T16:43:49.961Z,13.15
2019-03-20T16:44:50.020Z,13.16
2019-03-20T16:46:44.714Z,13.18
2019-03-20T16:47:43.071Z,13.19
2019-03-20T16:49:36.096Z,13.11
2019-03-20T16:50:36.110Z,13.20
2019-03-20T16:52:29.097Z,13.16
2019-03-20T16:53:29.163Z,13.00
2019-03-20T16:55:22.161Z,13.08
2019-03-20T16:56:22.215Z,13.05
2019-03-20T16:58:15.209Z,12.97
2019-03-20T16:59:15.284Z,12.97
2019-03-20T17:01:08.286Z,13.04
2019-03-20T17:02:08.410Z,13.04
2019-03-20T17:04:01.354Z,12.95
2019-03-20T17:05:01.394Z,12.94
2019-03-20T17:06:54.400Z,12.90
2019-03-20T17:07:54.434Z,12.94
2019-03-20T17:09:47.412Z,12.83
2019-03-20T17:10:47.521Z,12.85
2019-03-20T17:12:40.479Z,12.80
2019-03-20T17:13:40.514Z,12.75
2019-03-20T17:15:33.576Z,12.76
2019-03-20T17:16:33.582Z,12.80
2019-03-20T17:18:26.579Z,12.76
2019-03-20T17:19:26.637Z,12.67
2019-03-20T17:21:19.633Z,12.64
2019-03-20T17:22:19.686Z,12.62
2019-03-20T17:24:12.700Z,12.61
2019-03-20T17:25:12.823Z,12.62
2019-03-20T17:27:05.764Z,12.61
2019-03-20T17:28:05.775Z,12.55
2019-03-20T17:29:58.792Z,12.55
2019-03-20T17:30:58.826Z,12.55
2019-03-20T17:32:51.806Z,12.53
2019-03-20T17:33:51.853Z,12.50
2019-03-20T17:35:44.856Z,12.53
2019-03-20T17:36:44.892Z,12.42
2019-03-20T17:38:38.390Z,12.49
2019-03-20T17:39:38.454Z,12.50
2019-03-20T17:41:36.667Z,12.39
2019-03-20T17:42:31.511Z,12.42
2019-03-20T17:44:24.510Z,12.46
2019-03-20T17:45:24.556Z,12.40
2019-03-20T17:47:17.592Z,12.37
2019-03-20T17:48:17.656Z,12.37
2019-03-20T17:50:10.605Z,12.35
2019-03-20T17:51:10.637Z,12.27
2019-03-20T17:53:03.641Z,12.21
2019-03-20T17:54:03.676Z,12.24
2019-03-20T17:55:56.717Z,12.21
2019-03-20T17:56:56.720Z,12.04
2019-03-20T17:58:49.726Z,12.12
2019-03-20T17:59:49.760Z,12.06
2019-03-20T18:01:42.773Z,12.06
2019-03-20T18:02:42.822Z,12.03
2019-03-20T18:04:35.806Z,12.04
2019-03-20T18:05:35.854Z,11.95
2019-03-20T18:07:28.893Z,12.04
2019-03-20T18:08:28.896Z,12.12
2019-03-20T18:10:21.938Z,12.00
2019-03-20T18:11:21.940Z,12.04
2019-03-20T18:13:14.931Z,12.04
2019-03-20T18:14:14.978Z,12.04
2019-03-20T18:16:07.988Z,12.03
2019-03-20T18:17:08.018Z,12.03
2019-03-20T18:19:01.005Z,11.99
2019-03-20T18:20:01.065Z,12.07
2019-03-20T18:21:54.068Z,12.04
2019-03-20T18:22:54.117Z,12.04
2019-03-20T18:24:47.095Z,12.02
2019-03-20T18:25:47.152Z,12.06
2019-03-20T18:27:40.668Z,12.07
2019-03-20T18:28:40.698Z,11.97
2019-03-20T18:30:33.792Z,11.97
2019-03-20T18:31:33.751Z,11.95
2019-03-20T18:33:26.737Z,12.04
2019-03-20T18:34:26.783Z,11.95
2019-03-20T18:36:19.778Z,11.99
2019-03-20T18:37:19.880Z,12.00
2019-03-20T18:39:12.823Z,12.00
2019-03-20T18:40:12.868Z,11.95
2019-03-20T18:42:05.843Z,11.99
2019-03-20T18:43:05.914Z,11.95
2019-03-20T18:44:58.905Z,11.95
2019-03-20T18:45:58.962Z,11.88
2019-03-20T18:47:52.004Z,11.94
2019-03-20T18:48:51.991Z,11.95
2019-03-20T18:50:44.987Z,11.94